sensor_id;sensor_type;location;lat;lon;timestamp;P1;durP1;ratioP1;P2;durP2;ratioP2
47273;SDS011;33007;49.082;19.306;2022-07-21T00:00:41;6.03;;;3.85;;
47273;SDS011;33007;49.082;19.306;2022-07-21T00:03:07;5.60;;;4.00;;
47273;SDS011;33007;49.082;19.306;2022-07-21T00:05:32;5.32;;;4.13;;
47273;SDS011;33007;49.082;19.306;2022-07-21T00:07:59;6.72;;;3.97;;
47273;SDS011;33007;49.082;19.306;2022-07-21T00:10:25;5.15;;;3.97;;
47273;SDS011;33007;49.082;19.306;2022-07-21T00:12:51;7.75;;;4.03;;
47273;SDS011;33007;49.082;19.306;2022-07-21T00:15:18;5.30;;;4.28;;
47273;SDS011;33007;49.082;19.306;2022-07-21T00:17:45;5.47;;;4.30;;
47273;SDS011;33007;49.082;19.306;2022-07-21T00:20:11;6.63;;;4.10;;
47273;SDS011;33007;49.082;19.306;2022-07-21T00:22:38;5.20;;;3.80;;
47273;SDS011;33007;49.082;19.306;2022-07-21T00:25:05;7.70;;;4.55;;
47273;SDS011;33007;49.082;19.306;2022-07-21T00:27:31;6.95;;;4.13;;
47273;SDS011;33007;49.082;19.306;2022-07-21T00:29:57;6.53;;;4.05;;
47273;SDS011;33007;49.082;19.306;2022-07-21T00:32:23;6.40;;;4.13;;
47273;SDS011;33007;49.082;19.306;2022-07-21T00:34:49;5.95;;;4.72;;
47273;SDS011;33007;49.082;19.306;2022-07-21T00:37:15;7.25;;;4.22;;
47273;SDS011;33007;49.082;19.306;2022-07-21T00:39:40;6.53;;;4.32;;
47273;SDS011;33007;49.082;19.306;2022-07-21T00:42:06;5.28;;;4.60;;
47273;SDS011;33007;49.082;19.306;2022-07-21T00:44:32;8.88;;;4.95;;
47273;SDS011;33007;49.082;19.306;2022-07-21T00:46:59;10.65;;;5.40;;
47273;SDS011;33007;49.082;19.306;2022-07-21T00:49:25;9.68;;;5.40;;
47273;SDS011;33007;49.082;19.306;2022-07-21T00:51:52;9.98;;;5.70;;
47273;SDS011;33007;49.082;19.306;2022-07-21T00:54:18;12.30;;;6.00;;
47273;SDS011;33007;49.082;19.306;2022-07-21T00:56:44;9.48;;;6.25;;
47273;SDS011;33007;49.082;19.306;2022-07-21T00:59:11;7.43;;;5.20;;
47273;SDS011;33007;49.082;19.306;2022-07-21T01:01:36;9.15;;;5.35;;
47273;SDS011;33007;49.082;19.306;2022-07-21T01:04:03;7.43;;;4.97;;
47273;SDS011;33007;49.082;19.306;2022-07-21T01:06:28;8.52;;;4.38;;
47273;SDS011;33007;49.082;19.306;2022-07-21T01:08:54;14.80;;;4.70;;
47273;SDS011;33007;49.082;19.306;2022-07-21T01:11:21;7.38;;;4.88;;
47273;SDS011;33007;49.082;19.306;2022-07-21T01:13:49;5.00;;;4.18;;
47273;SDS011;33007;49.082;19.306;2022-07-21T01:16:16;6.43;;;4.50;;
47273;SDS011;33007;49.082;19.306;2022-07-21T01:18:41;5.15;;;4.25;;
47273;SDS011;33007;49.082;19.306;2022-07-21T01:21:14;6.63;;;4.70;;
47273;SDS011;33007;49.082;19.306;2022-07-21T01:23:49;5.75;;;4.22;;
47273;SDS011;33007;49.082;19.306;2022-07-21T01:26:15;5.28;;;4.47;;
47273;SDS011;33007;49.082;19.306;2022-07-21T01:28:41;9.38;;;4.70;;
47273;SDS011;33007;49.082;19.306;2022-07-21T01:31:06;6.18;;;4.68;;
47273;SDS011;33007;49.082;19.306;2022-07-21T01:33:33;6.13;;;4.57;;
47273;SDS011;33007;49.082;19.306;2022-07-21T01:35:58;5.95;;;4.50;;
47273;SDS011;33007;49.082;19.306;2022-07-21T01:38:24;7.07;;;4.80;;
47273;SDS011;33007;49.082;19.306;2022-07-21T01:41:08;5.82;;;4.30;;
47273;SDS011;33007;49.082;19.306;2022-07-21T01:43:52;6.68;;;4.55;;
47273;SDS011;33007;49.082;19.306;2022-07-21T01:46:18;5.53;;;4.72;;
47273;SDS011;33007;49.082;19.306;2022-07-21T01:48:43;5.57;;;4.65;;
47273;SDS011;33007;49.082;19.306;2022-07-21T01:51:09;8.50;;;4.47;;
47273;SDS011;33007;49.082;19.306;2022-07-21T01:53:36;7.82;;;5.03;;
47273;SDS011;33007;49.082;19.306;2022-07-21T01:56:02;7.30;;;4.78;;
47273;SDS011;33007;49.082;19.306;2022-07-21T01:58:29;7.50;;;4.80;;
47273;SDS011;33007;49.082;19.306;2022-07-21T02:00:55;9.50;;;4.43;;
47273;SDS011;33007;49.082;19.306;2022-07-21T02:03:21;5.72;;;4.95;;
47273;SDS011;33007;49.082;19.306;2022-07-21T02:05:47;8.45;;;5.10;;
47273;SDS011;33007;49.082;19.306;2022-07-21T02:08:12;7.70;;;4.88;;
47273;SDS011;33007;49.082;19.306;2022-07-21T02:10:38;7.28;;;5.10;;
47273;SDS011;33007;49.082;19.306;2022-07-21T02:13:04;6.80;;;5.10;;
47273;SDS011;33007;49.082;19.306;2022-07-21T02:15:30;8.00;;;5.22;;
47273;SDS011;33007;49.082;19.306;2022-07-21T02:17:57;6.55;;;5.00;;
47273;SDS011;33007;49.082;19.306;2022-07-21T02:20:23;7.30;;;5.30;;
47273;SDS011;33007;49.082;19.306;2022-07-21T02:22:49;9.32;;;4.65;;
47273;SDS011;33007;49.082;19.306;2022-07-21T02:25:16;5.95;;;4.85;;
47273;SDS011;33007;49.082;19.306;2022-07-21T02:27:42;7.72;;;5.13;;
47273;SDS011;33007;49.082;19.306;2022-07-21T02:30:08;7.72;;;5.38;;
47273;SDS011;33007;49.082;19.306;2022-07-21T02:32:35;5.43;;;4.90;;
47273;SDS011;33007;49.082;19.306;2022-07-21T02:35:00;6.72;;;4.68;;
47273;SDS011;33007;49.082;19.306;2022-07-21T02:37:27;7.13;;;4.70;;
47273;SDS011;33007;49.082;19.306;2022-07-21T02:39:53;7.07;;;5.18;;
47273;SDS011;33007;49.082;19.306;2022-07-21T02:42:19;7.95;;;5.13;;
47273;SDS011;33007;49.082;19.306;2022-07-21T02:44:44;6.43;;;5.10;;
47273;SDS011;33007;49.082;19.306;2022-07-21T02:47:10;5.88;;;5.03;;
47273;SDS011;33007;49.082;19.306;2022-07-21T02:49:36;11.15;;;4.93;;
47273;SDS011;33007;49.082;19.306;2022-07-21T02:52:02;5.93;;;5.15;;
47273;SDS011;33007;49.082;19.306;2022-07-21T02:54:28;7.63;;;5.18;;
47273;SDS011;33007;49.082;19.306;2022-07-21T02:56:53;7.53;;;4.97;;
47273;SDS011;33007;49.082;19.306;2022-07-21T02:59:19;8.32;;;5.43;;
47273;SDS011;33007;49.082;19.306;2022-07-21T03:01:44;7.50;;;5.30;;
47273;SDS011;33007;49.082;19.306;2022-07-21T03:04:10;7.43;;;5.32;;
47273;SDS011;33007;49.082;19.306;2022-07-21T03:06:36;7.93;;;5.00;;
47273;SDS011;33007;49.082;19.306;2022-07-21T03:09:03;9.10;;;5.55;;
47273;SDS011;33007;49.082;19.306;2022-07-21T03:11:29;9.52;;;5.55;;
47273;SDS011;33007;49.082;19.306;2022-07-21T03:13:55;8.00;;;5.72;;
47273;SDS011;33007;49.082;19.306;2022-07-21T03:16:20;6.90;;;5.72;;
47273;SDS011;33007;49.082;19.306;2022-07-21T03:18:46;7.68;;;5.10;;
47273;SDS011;33007;49.082;19.306;2022-07-21T03:21:12;7.25;;;5.60;;
47273;SDS011;33007;49.082;19.306;2022-07-21T03:23:38;8.10;;;5.80;;
47273;SDS011;33007;49.082;19.306;2022-07-21T03:26:04;7.22;;;5.50;;
47273;SDS011;33007;49.082;19.306;2022-07-21T03:28:29;8.13;;;5.78;;
47273;SDS011;33007;49.082;19.306;2022-07-21T03:30:55;10.38;;;5.93;;
47273;SDS011;33007;49.082;19.306;2022-07-21T03:33:21;10.30;;;6.10;;
47273;SDS011;33007;49.082;19.306;2022-07-21T03:35:47;12.73;;;5.90;;
47273;SDS011;33007;49.082;19.306;2022-07-21T03:38:12;9.60;;;6.40;;
47273;SDS011;33007;49.082;19.306;2022-07-21T03:40:38;9.45;;;5.60;;
47273;SDS011;33007;49.082;19.306;2022-07-21T03:43:05;9.73;;;5.78;;
47273;SDS011;33007;49.082;19.306;2022-07-21T03:45:32;10.13;;;5.78;;
47273;SDS011;33007;49.082;19.306;2022-07-21T03:48:00;7.75;;;5.32;;
47273;SDS011;33007;49.082;19.306;2022-07-21T03:50:29;9.05;;;6.07;;
47273;SDS011;33007;49.082;19.306;2022-07-21T03:52:55;9.57;;;5.75;;
47273;SDS011;33007;49.082;19.306;2022-07-21T03:55:21;8.73;;;6.00;;
47273;SDS011;33007;49.082;19.306;2022-07-21T03:57:49;8.18;;;5.70;;
47273;SDS011;33007;49.082;19.306;2022-07-21T04:00:22;6.60;;;5.90;;
47273;SDS011;33007;49.082;19.306;2022-07-21T04:02:51;7.88;;;5.63;;
47273;SDS011;33007;49.082;19.306;2022-07-21T04:05:17;6.65;;;5.40;;
47273;SDS011;33007;49.082;19.306;2022-07-21T04:07:45;13.00;;;6.30;;
47273;SDS011;33007;49.082;19.306;2022-07-21T04:10:13;9.02;;;6.38;;
47273;SDS011;33007;49.082;19.306;2022-07-21T04:12:40;7.55;;;5.20;;
47273;SDS011;33007;49.082;19.306;2022-07-21T04:15:07;8.68;;;5.85;;
47273;SDS011;33007;49.082;19.306;2022-07-21T04:17:33;10.55;;;5.93;;
47273;SDS011;33007;49.082;19.306;2022-07-21T04:19:59;8.45;;;6.15;;
47273;SDS011;33007;49.082;19.306;2022-07-21T04:22:25;9.02;;;6.07;;
47273;SDS011;33007;49.082;19.306;2022-07-21T04:24:51;10.23;;;6.43;;
47273;SDS011;33007;49.082;19.306;2022-07-21T04:27:17;7.93;;;6.25;;
47273;SDS011;33007;49.082;19.306;2022-07-21T04:29:43;8.65;;;6.20;;
47273;SDS011;33007;49.082;19.306;2022-07-21T04:32:08;8.63;;;6.60;;
47273;SDS011;33007;49.082;19.306;2022-07-21T04:34:34;9.25;;;6.45;;
47273;SDS011;33007;49.082;19.306;2022-07-21T04:36:59;10.07;;;6.10;;
47273;SDS011;33007;49.082;19.306;2022-07-21T04:39:25;10.32;;;6.50;;
47273;SDS011;33007;49.082;19.306;2022-07-21T04:41:51;9.50;;;6.60;;
47273;SDS011;33007;49.082;19.306;2022-07-21T04:44:16;10.57;;;7.10;;
47273;SDS011;33007;49.082;19.306;2022-07-21T04:46:42;11.13;;;8.32;;
47273;SDS011;33007;49.082;19.306;2022-07-21T04:49:07;16.98;;;8.27;;
47273;SDS011;33007;49.082;19.306;2022-07-21T04:51:33;12.85;;;8.80;;
47273;SDS011;33007;49.082;19.306;2022-07-21T04:53:58;13.80;;;8.82;;
47273;SDS011;33007;49.082;19.306;2022-07-21T04:56:24;16.80;;;8.95;;
47273;SDS011;33007;49.082;19.306;2022-07-21T04:58:50;13.98;;;8.70;;
47273;SDS011;33007;49.082;19.306;2022-07-21T05:01:15;13.57;;;8.77;;
47273;SDS011;33007;49.082;19.306;2022-07-21T05:03:43;21.38;;;9.43;;
47273;SDS011;33007;49.082;19.306;2022-07-21T05:06:09;16.60;;;9.25;;
47273;SDS011;33007;49.082;19.306;2022-07-21T05:08:35;12.85;;;8.40;;
47273;SDS011;33007;49.082;19.306;2022-07-21T05:11:01;15.60;;;9.23;;
47273;SDS011;33007;49.082;19.306;2022-07-21T05:13:26;17.23;;;9.05;;
47273;SDS011;33007;49.082;19.306;2022-07-21T05:15:52;14.00;;;8.70;;
47273;SDS011;33007;49.082;19.306;2022-07-21T05:18:17;17.20;;;9.80;;
47273;SDS011;33007;49.082;19.306;2022-07-21T05:20:43;13.52;;;8.98;;
47273;SDS011;33007;49.082;19.306;2022-07-21T05:23:09;13.82;;;8.82;;
47273;SDS011;33007;49.082;19.306;2022-07-21T05:25:34;15.02;;;8.50;;
47273;SDS011;33007;49.082;19.306;2022-07-21T05:28:00;20.77;;;9.45;;
47273;SDS011;33007;49.082;19.306;2022-07-21T05:30:27;15.52;;;9.35;;
47273;SDS011;33007;49.082;19.306;2022-07-21T05:32:52;17.15;;;8.68;;
47273;SDS011;33007;49.082;19.306;2022-07-21T05:35:18;14.05;;;9.63;;
47273;SDS011;33007;49.082;19.306;2022-07-21T05:37:44;14.90;;;9.27;;
47273;SDS011;33007;49.082;19.306;2022-07-21T05:40:10;16.10;;;9.43;;
47273;SDS011;33007;49.082;19.306;2022-07-21T05:42:36;16.67;;;9.52;;
47273;SDS011;33007;49.082;19.306;2022-07-21T05:45:02;16.45;;;9.10;;
47273;SDS011;33007;49.082;19.306;2022-07-21T05:47:29;13.98;;;9.40;;
47273;SDS011;33007;49.082;19.306;2022-07-21T05:49:57;15.18;;;9.50;;
47273;SDS011;33007;49.082;19.306;2022-07-21T05:52:24;16.10;;;9.55;;
47273;SDS011;33007;49.082;19.306;2022-07-21T05:54:49;11.82;;;8.90;;
47273;SDS011;33007;49.082;19.306;2022-07-21T05:57:15;13.23;;;9.05;;
47273;SDS011;33007;49.082;19.306;2022-07-21T05:59:42;14.40;;;9.23;;
47273;SDS011;33007;49.082;19.306;2022-07-21T06:02:07;16.40;;;9.05;;
47273;SDS011;33007;49.082;19.306;2022-07-21T06:04:33;17.17;;;8.70;;
47273;SDS011;33007;49.082;19.306;2022-07-21T06:06:58;16.10;;;9.15;;
47273;SDS011;33007;49.082;19.306;2022-07-21T06:09:24;14.90;;;9.35;;
47273;SDS011;33007;49.082;19.306;2022-07-21T06:11:50;12.20;;;8.80;;
47273;SDS011;33007;49.082;19.306;2022-07-21T06:14:15;12.05;;;9.27;;
47273;SDS011;33007;49.082;19.306;2022-07-21T06:16:41;11.98;;;9.10;;
47273;SDS011;33007;49.082;19.306;2022-07-21T06:19:06;12.88;;;9.02;;
47273;SDS011;33007;49.082;19.306;2022-07-21T06:21:32;11.52;;;8.43;;
47273;SDS011;33007;49.082;19.306;2022-07-21T06:23:58;11.75;;;8.27;;
47273;SDS011;33007;49.082;19.306;2022-07-21T06:26:24;10.07;;;8.48;;
47273;SDS011;33007;49.082;19.306;2022-07-21T06:28:49;12.73;;;8.90;;
47273;SDS011;33007;49.082;19.306;2022-07-21T06:31:15;10.77;;;7.80;;
47273;SDS011;33007;49.082;19.306;2022-07-21T06:33:41;14.10;;;8.23;;
47273;SDS011;33007;49.082;19.306;2022-07-21T06:36:07;12.38;;;8.38;;
47273;SDS011;33007;49.082;19.306;2022-07-21T06:38:33;11.73;;;8.15;;
47273;SDS011;33007;49.082;19.306;2022-07-21T06:40:58;11.50;;;7.72;;
47273;SDS011;33007;49.082;19.306;2022-07-21T06:43:24;10.85;;;8.02;;
47273;SDS011;33007;49.082;19.306;2022-07-21T06:45:50;9.50;;;6.55;;
47273;SDS011;33007;49.082;19.306;2022-07-21T06:48:16;9.93;;;6.78;;
47273;SDS011;33007;49.082;19.306;2022-07-21T06:50:41;8.43;;;6.72;;
47273;SDS011;33007;49.082;19.306;2022-07-21T06:53:07;8.65;;;6.88;;
47273;SDS011;33007;49.082;19.306;2022-07-21T06:55:33;9.07;;;6.85;;
47273;SDS011;33007;49.082;19.306;2022-07-21T06:58:09;10.77;;;6.88;;
47273;SDS011;33007;49.082;19.306;2022-07-21T07:00:36;9.07;;;6.50;;
47273;SDS011;33007;49.082;19.306;2022-07-21T07:03:02;9.18;;;6.70;;
47273;SDS011;33007;49.082;19.306;2022-07-21T07:05:28;8.77;;;6.50;;
47273;SDS011;33007;49.082;19.306;2022-07-21T07:11:16;10.27;;;6.22;;
47273;SDS011;33007;49.082;19.306;2022-07-21T07:14:00;6.90;;;5.60;;
47273;SDS011;33007;49.082;19.306;2022-07-21T07:16:26;7.60;;;5.80;;
47273;SDS011;33007;49.082;19.306;2022-07-21T07:18:52;8.23;;;6.07;;
47273;SDS011;33007;49.082;19.306;2022-07-21T07:21:17;7.53;;;5.22;;
47273;SDS011;33007;49.082;19.306;2022-07-21T07:23:43;9.00;;;5.57;;
47273;SDS011;33007;49.082;19.306;2022-07-21T07:26:08;9.32;;;6.07;;
47273;SDS011;33007;49.082;19.306;2022-07-21T07:28:34;6.97;;;5.38;;
47273;SDS011;33007;49.082;19.306;2022-07-21T07:31:00;8.13;;;4.70;;
47273;SDS011;33007;49.082;19.306;2022-07-21T07:33:25;7.60;;;5.10;;
47273;SDS011;33007;49.082;19.306;2022-07-21T07:35:52;7.95;;;4.93;;
47273;SDS011;33007;49.082;19.306;2022-07-21T07:38:18;5.80;;;4.38;;
47273;SDS011;33007;49.082;19.306;2022-07-21T07:40:44;7.05;;;4.75;;
47273;SDS011;33007;49.082;19.306;2022-07-21T07:43:09;5.53;;;4.70;;
47273;SDS011;33007;49.082;19.306;2022-07-21T07:45:35;5.90;;;4.55;;
47273;SDS011;33007;49.082;19.306;2022-07-21T07:48:04;9.43;;;5.67;;
47273;SDS011;33007;49.082;19.306;2022-07-21T07:50:39;6.18;;;4.93;;
47273;SDS011;33007;49.082;19.306;2022-07-21T07:53:05;6.88;;;4.85;;
47273;SDS011;33007;49.082;19.306;2022-07-21T07:55:31;7.38;;;4.82;;
47273;SDS011;33007;49.082;19.306;2022-07-21T07:57:56;7.13;;;5.15;;
47273;SDS011;33007;49.082;19.306;2022-07-21T08:00:22;6.45;;;5.30;;
47273;SDS011;33007;49.082;19.306;2022-07-21T08:02:47;6.95;;;4.68;;
47273;SDS011;33007;49.082;19.306;2022-07-21T08:05:14;7.80;;;4.93;;
47273;SDS011;33007;49.082;19.306;2022-07-21T08:07:39;6.80;;;4.75;;
47273;SDS011;33007;49.082;19.306;2022-07-21T08:10:06;6.55;;;4.88;;
47273;SDS011;33007;49.082;19.306;2022-07-21T08:12:34;6.43;;;5.00;;
47273;SDS011;33007;49.082;19.306;2022-07-21T08:14:59;7.53;;;5.18;;
47273;SDS011;33007;49.082;19.306;2022-07-21T08:17:25;6.78;;;5.00;;
47273;SDS011;33007;49.082;19.306;2022-07-21T08:19:50;8.13;;;5.10;;
47273;SDS011;33007;49.082;19.306;2022-07-21T08:22:16;9.15;;;5.32;;
47273;SDS011;33007;49.082;19.306;2022-07-21T08:24:41;8.18;;;5.28;;
47273;SDS011;33007;49.082;19.306;2022-07-21T08:27:07;6.70;;;5.07;;
47273;SDS011;33007;49.082;19.306;2022-07-21T08:29:33;5.60;;;4.75;;
47273;SDS011;33007;49.082;19.306;2022-07-21T08:31:58;6.75;;;4.88;;
47273;SDS011;33007;49.082;19.306;2022-07-21T08:34:24;7.05;;;4.35;;
47273;SDS011;33007;49.082;19.306;2022-07-21T08:36:50;6.32;;;4.63;;
47273;SDS011;33007;49.082;19.306;2022-07-21T08:39:15;13.52;;;5.18;;
47273;SDS011;33007;49.082;19.306;2022-07-21T08:41:41;6.90;;;5.15;;
47273;SDS011;33007;49.082;19.306;2022-07-21T08:44:07;7.47;;;5.78;;
47273;SDS011;33007;49.082;19.306;2022-07-21T08:46:54;6.45;;;5.10;;
47273;SDS011;33007;49.082;19.306;2022-07-21T08:49:20;5.53;;;4.32;;
47273;SDS011;33007;49.082;19.306;2022-07-21T08:51:47;7.45;;;4.80;;
47273;SDS011;33007;49.082;19.306;2022-07-21T08:54:19;7.30;;;4.15;;
47273;SDS011;33007;49.082;19.306;2022-07-21T08:56:46;7.82;;;4.40;;
47273;SDS011;33007;49.082;19.306;2022-07-21T08:59:12;6.97;;;4.28;;
47273;SDS011;33007;49.082;19.306;2022-07-21T09:01:37;7.68;;;4.10;;
47273;SDS011;33007;49.082;19.306;2022-07-21T09:06:53;5.93;;;3.88;;
47273;SDS011;33007;49.082;19.306;2022-07-21T09:09:24;6.07;;;3.92;;
47273;SDS011;33007;49.082;19.306;2022-07-21T09:11:51;6.18;;;3.53;;
47273;SDS011;33007;49.082;19.306;2022-07-21T09:14:18;5.30;;;3.15;;
47273;SDS011;33007;49.082;19.306;2022-07-21T09:19:26;4.95;;;3.20;;
47273;SDS011;33007;49.082;19.306;2022-07-21T09:21:55;5.43;;;2.85;;
47273;SDS011;33007;49.082;19.306;2022-07-21T09:24:23;8.27;;;2.67;;
47273;SDS011;33007;49.082;19.306;2022-07-21T09:29:26;5.25;;;2.70;;
47273;SDS011;33007;49.082;19.306;2022-07-21T09:31:58;5.55;;;2.85;;
47273;SDS011;33007;49.082;19.306;2022-07-21T09:34:41;5.22;;;2.72;;
47273;SDS011;33007;49.082;19.306;2022-07-21T09:37:07;7.28;;;2.60;;
47273;SDS011;33007;49.082;19.306;2022-07-21T09:39:48;5.80;;;2.50;;
47273;SDS011;33007;49.082;19.306;2022-07-21T09:42:25;6.32;;;2.70;;
47273;SDS011;33007;49.082;19.306;2022-07-21T09:44:58;8.90;;;2.70;;
47273;SDS011;33007;49.082;19.306;2022-07-21T09:47:27;8.07;;;2.90;;
47273;SDS011;33007;49.082;19.306;2022-07-21T09:49:54;5.63;;;2.60;;
47273;SDS011;33007;49.082;19.306;2022-07-21T09:52:26;6.85;;;2.72;;
47273;SDS011;33007;49.082;19.306;2022-07-21T09:54:52;8.52;;;3.08;;
47273;SDS011;33007;49.082;19.306;2022-07-21T09:57:20;9.60;;;3.50;;
47273;SDS011;33007;49.082;19.306;2022-07-21T09:59:46;9.05;;;3.17;;
47273;SDS011;33007;49.082;19.306;2022-07-21T10:04:57;8.02;;;2.92;;
47273;SDS011;33007;49.082;19.306;2022-07-21T10:07:23;5.78;;;2.97;;
47273;SDS011;33007;49.082;19.306;2022-07-21T10:09:49;6.45;;;3.03;;
47273;SDS011;33007;49.082;19.306;2022-07-21T10:12:15;4.63;;;2.92;;
47273;SDS011;33007;49.082;19.306;2022-07-21T10:14:42;9.45;;;3.42;;
47273;SDS011;33007;49.082;19.306;2022-07-21T10:17:08;9.27;;;3.10;;
47273;SDS011;33007;49.082;19.306;2022-07-21T10:19:39;8.63;;;3.53;;
47273;SDS011;33007;49.082;19.306;2022-07-21T10:25:02;6.05;;;3.10;;
47273;SDS011;33007;49.082;19.306;2022-07-21T10:27:28;10.23;;;2.80;;
47273;SDS011;33007;49.082;19.306;2022-07-21T10:29:55;5.43;;;2.90;;
47273;SDS011;33007;49.082;19.306;2022-07-21T10:32:33;5.30;;;2.67;;
47273;SDS011;33007;49.082;19.306;2022-07-21T10:35:26;5.70;;;3.00;;
47273;SDS011;33007;49.082;19.306;2022-07-21T10:37:54;7.32;;;2.97;;
47273;SDS011;33007;49.082;19.306;2022-07-21T10:45:32;6.78;;;2.78;;
47273;SDS011;33007;49.082;19.306;2022-07-21T10:48:00;9.95;;;2.55;;
47273;SDS011;33007;49.082;19.306;2022-07-21T10:50:31;6.53;;;2.75;;
47273;SDS011;33007;49.082;19.306;2022-07-21T10:52:57;6.68;;;2.85;;
47273;SDS011;33007;49.082;19.306;2022-07-21T10:55:34;5.50;;;2.70;;
47273;SDS011;33007;49.082;19.306;2022-07-21T10:58:11;6.82;;;2.15;;
47273;SDS011;33007;49.082;19.306;2022-07-21T11:00:45;6.03;;;2.85;;
47273;SDS011;33007;49.082;19.306;2022-07-21T11:03:16;6.13;;;2.72;;
47273;SDS011;33007;49.082;19.306;2022-07-21T11:11:29;6.97;;;2.45;;
47273;SDS011;33007;49.082;19.306;2022-07-21T11:22:13;7.75;;;2.78;;
47273;SDS011;33007;49.082;19.306;2022-07-21T11:24:43;10.05;;;2.50;;
47273;SDS011;33007;49.082;19.306;2022-07-21T11:27:24;11.35;;;3.10;;
47273;SDS011;33007;49.082;19.306;2022-07-21T11:29:54;6.28;;;2.72;;
47273;SDS011;33007;49.082;19.306;2022-07-21T11:32:22;7.82;;;2.63;;
47273;SDS011;33007;49.082;19.306;2022-07-21T11:34:51;6.40;;;2.40;;
47273;SDS011;33007;49.082;19.306;2022-07-21T11:37:32;6.38;;;2.40;;
47273;SDS011;33007;49.082;19.306;2022-07-21T11:40:00;10.55;;;2.83;;
47273;SDS011;33007;49.082;19.306;2022-07-21T11:42:26;8.20;;;2.50;;
47273;SDS011;33007;49.082;19.306;2022-07-21T11:44:53;7.63;;;2.50;;
47273;SDS011;33007;49.082;19.306;2022-07-21T11:47:19;8.95;;;2.55;;
47273;SDS011;33007;49.082;19.306;2022-07-21T11:49:51;9.15;;;2.78;;
47273;SDS011;33007;49.082;19.306;2022-07-21T11:52:25;7.57;;;2.42;;
47273;SDS011;33007;49.082;19.306;2022-07-21T11:54:53;7.18;;;2.88;;
47273;SDS011;33007;49.082;19.306;2022-07-21T11:57:20;8.23;;;2.90;;
47273;SDS011;33007;49.082;19.306;2022-07-21T11:59:47;8.63;;;3.40;;
47273;SDS011;33007;49.082;19.306;2022-07-21T12:02:15;12.45;;;3.25;;
47273;SDS011;33007;49.082;19.306;2022-07-21T12:04:46;15.90;;;3.03;;
47273;SDS011;33007;49.082;19.306;2022-07-21T12:07:18;11.32;;;3.58;;
47273;SDS011;33007;49.082;19.306;2022-07-21T12:09:50;13.10;;;3.70;;
47273;SDS011;33007;49.082;19.306;2022-07-21T12:17:43;10.13;;;3.53;;
47273;SDS011;33007;49.082;19.306;2022-07-21T12:20:12;14.20;;;4.22;;
47273;SDS011;33007;49.082;19.306;2022-07-21T12:22:40;9.68;;;3.85;;
47273;SDS011;33007;49.082;19.306;2022-07-21T12:25:08;10.52;;;2.78;;
47273;SDS011;33007;49.082;19.306;2022-07-21T12:27:35;43.80;;;8.75;;
47273;SDS011;33007;49.082;19.306;2022-07-21T12:30:03;8.68;;;2.83;;
47273;SDS011;33007;49.082;19.306;2022-07-21T12:32:40;14.07;;;4.25;;
47273;SDS011;33007;49.082;19.306;2022-07-21T12:35:25;17.83;;;4.20;;
47273;SDS011;33007;49.082;19.306;2022-07-21T12:37:53;19.80;;;4.63;;
47273;SDS011;33007;49.082;19.306;2022-07-21T12:40:18;18.17;;;4.50;;
47273;SDS011;33007;49.082;19.306;2022-07-21T12:42:46;17.92;;;5.13;;
47273;SDS011;33007;49.082;19.306;2022-07-21T12:45:15;32.40;;;8.40;;
47273;SDS011;33007;49.082;19.306;2022-07-21T12:47:42;9.20;;;3.00;;
47273;SDS011;33007;49.082;19.306;2022-07-21T12:50:13;16.50;;;4.47;;
47273;SDS011;33007;49.082;19.306;2022-07-21T12:52:40;6.18;;;2.70;;
47273;SDS011;33007;49.082;19.306;2022-07-21T12:55:06;12.07;;;3.10;;
47273;SDS011;33007;49.082;19.306;2022-07-21T12:57:32;8.95;;;3.33;;
47273;SDS011;33007;49.082;19.306;2022-07-21T12:59:59;6.65;;;2.65;;
47273;SDS011;33007;49.082;19.306;2022-07-21T13:02:26;8.95;;;2.95;;
47273;SDS011;33007;49.082;19.306;2022-07-21T13:04:54;9.95;;;3.00;;
47273;SDS011;33007;49.082;19.306;2022-07-21T13:07:19;5.97;;;2.45;;
47273;SDS011;33007;49.082;19.306;2022-07-21T13:09:45;9.88;;;2.83;;
47273;SDS011;33007;49.082;19.306;2022-07-21T13:12:14;5.25;;;2.33;;
47273;SDS011;33007;49.082;19.306;2022-07-21T13:14:41;12.35;;;3.10;;
47273;SDS011;33007;49.082;19.306;2022-07-21T13:17:07;6.90;;;2.60;;
47273;SDS011;33007;49.082;19.306;2022-07-21T13:19:33;6.65;;;2.70;;
47273;SDS011;33007;49.082;19.306;2022-07-21T13:22:02;6.13;;;2.50;;
47273;SDS011;33007;49.082;19.306;2022-07-21T13:24:28;10.10;;;2.70;;
47273;SDS011;33007;49.082;19.306;2022-07-21T13:26:54;4.45;;;2.58;;
47273;SDS011;33007;49.082;19.306;2022-07-21T13:29:20;4.85;;;2.55;;
47273;SDS011;33007;49.082;19.306;2022-07-21T13:31:45;7.38;;;2.45;;
47273;SDS011;33007;49.082;19.306;2022-07-21T13:34:12;9.80;;;2.80;;
47273;SDS011;33007;49.082;19.306;2022-07-21T13:36:44;4.40;;;2.47;;
47273;SDS011;33007;49.082;19.306;2022-07-21T13:39:10;5.15;;;2.40;;
47273;SDS011;33007;49.082;19.306;2022-07-21T13:41:36;6.97;;;2.90;;
47273;SDS011;33007;49.082;19.306;2022-07-21T13:44:03;5.65;;;2.42;;
47273;SDS011;33007;49.082;19.306;2022-07-21T13:46:29;3.80;;;2.20;;
47273;SDS011;33007;49.082;19.306;2022-07-21T13:48:54;14.35;;;2.92;;
47273;SDS011;33007;49.082;19.306;2022-07-21T13:51:20;8.98;;;2.58;;
47273;SDS011;33007;49.082;19.306;2022-07-21T13:53:47;7.85;;;2.90;;
47273;SDS011;33007;49.082;19.306;2022-07-21T13:56:13;6.22;;;2.47;;
47273;SDS011;33007;49.082;19.306;2022-07-21T13:58:41;65.20;;;7.90;;
47273;SDS011;33007;49.082;19.306;2022-07-21T14:01:07;7.80;;;2.90;;
47273;SDS011;33007;49.082;19.306;2022-07-21T14:03:33;6.82;;;3.05;;
47273;SDS011;33007;49.082;19.306;2022-07-21T14:06:00;31.85;;;5.85;;
47273;SDS011;33007;49.082;19.306;2022-07-21T14:08:26;10.48;;;3.95;;
47273;SDS011;33007;49.082;19.306;2022-07-21T14:10:51;11.57;;;4.00;;
47273;SDS011;33007;49.082;19.306;2022-07-21T14:13:17;8.60;;;3.05;;
47273;SDS011;33007;49.082;19.306;2022-07-21T14:15:43;14.00;;;4.20;;
47273;SDS011;33007;49.082;19.306;2022-07-21T14:18:09;11.77;;;3.40;;
47273;SDS011;33007;49.082;19.306;2022-07-21T14:20:35;72.50;;;9.35;;
47273;SDS011;33007;49.082;19.306;2022-07-21T14:23:01;12.40;;;3.38;;
47273;SDS011;33007;49.082;19.306;2022-07-21T14:25:26;8.77;;;2.95;;
47273;SDS011;33007;49.082;19.306;2022-07-21T14:27:53;17.67;;;4.18;;
47273;SDS011;33007;49.082;19.306;2022-07-21T14:30:21;11.15;;;3.38;;
47273;SDS011;33007;49.082;19.306;2022-07-21T14:32:49;11.25;;;3.50;;
47273;SDS011;33007;49.082;19.306;2022-07-21T14:35:15;7.68;;;3.08;;
47273;SDS011;33007;49.082;19.306;2022-07-21T14:40:10;11.63;;;3.50;;
47273;SDS011;33007;49.082;19.306;2022-07-21T14:42:37;11.18;;;3.40;;
47273;SDS011;33007;49.082;19.306;2022-07-21T14:45:04;59.17;;;7.95;;
47273;SDS011;33007;49.082;19.306;2022-07-21T14:47:31;27.17;;;5.18;;
47273;SDS011;33007;49.082;19.306;2022-07-21T14:49:57;22.95;;;5.32;;
47273;SDS011;33007;49.082;19.306;2022-07-21T14:52:23;38.08;;;4.90;;
47273;SDS011;33007;49.082;19.306;2022-07-21T14:54:49;14.27;;;3.65;;
47273;SDS011;33007;49.082;19.306;2022-07-21T14:57:14;10.40;;;3.45;;
47273;SDS011;33007;49.082;19.306;2022-07-21T14:59:40;9.85;;;3.30;;
47273;SDS011;33007;49.082;19.306;2022-07-21T15:02:07;13.30;;;3.70;;
47273;SDS011;33007;49.082;19.306;2022-07-21T15:04:33;7.70;;;2.90;;
47273;SDS011;33007;49.082;19.306;2022-07-21T15:06:58;8.55;;;3.10;;
47273;SDS011;33007;49.082;19.306;2022-07-21T15:09:24;8.07;;;2.88;;
47273;SDS011;33007;49.082;19.306;2022-07-21T15:11:50;11.85;;;3.65;;
47273;SDS011;33007;49.082;19.306;2022-07-21T15:14:15;9.02;;;2.95;;